Main page
METAR-TAF:

METAR-TAF

Airports :

Texarkana Regional Airport

Texarkana, Arkansas, United States

latitude: 33-27-22N, longitude: 093-59-15W, elevation: 387 ft

Current weather observation

The report was made 1 hour and 6 minutes ago, at 01:53 UTC
Wind 3 mph from the South
Temperature 90°F
Humidity 56%
Pressure 29.90 in. Hg
Visibility: 10 miles
Clear sky

METAR: KTXK 250153Z AUTO 17003KT 10SM CLR 32/22 A2990 RMK AO2 SLP117 T03170222

Time: 21:59 (02:59 UTC)

Forecast

The report was made 9 hours and 19 minutes ago, at 17:40 UTC
Forecast valid from 24 at 18 UTC to 25 at 18 UTC
Wind 5 mph from variable directions
Visibility: 6 miles
Scattered clouds at a height of 4000 ft
From 25 at 0300 UTC
Wind 3 mph from variable directions
Visibility: 6 miles
Clear sky
From 25 at 1500 UTC
Wind 8 mph from the Southwest
Visibility: 6 miles
Scattered clouds at a height of 25000 ft

TAF: KTXK 241740Z 2418/2518 VRB04KT P6SM SCT040 FM250300 VRB03KT P6SM SKC FM251500 22007KT P6SM SCT250

Weather observations and forecasts of more than 4000 airports (METAR and TAF reports).

The available stations are represented by yellow and red dots on the map.

Hover mouse over dot to see the name of the station.

Then click to see weather observations and forecasts.

To change the map : click on the green buttons with a black cross to zoom in, on the green button with a dash to zoom out, or on the green arrows for adjacent maps.


METAR-TAF: